Overview Statistics Trail Chart Weather Telemetry Raw packets
 

This is the latest recevied weather packets stored in our database for station/object WX6HNX-14. If no packets are shown the sender has not sent any weather packets the latest 10 day(s).

<< 8 9 10 11 12 13 14 >>
Time Temp. Humidity Pressure Rain* Wind** Luminosity Snow
1777735978 21.67° C 53% 1012.8 hPa 0 mm - - -
1777735378 21.11° C 54% 1012.8 hPa 0 mm - - -
1777735077 21.11° C 55% 1012.9 hPa 0 mm - - -
1777734758 21.11° C 55% 1012.8 hPa 0 mm - - -
1777734460 21.11° C 55% 1012.8 hPa 0 mm - - -
1777734158 21.11° C 57% 1012.8 hPa 0 mm - - -
1777733859 20.56° C 60% 1012.8 hPa 0 mm - - -
1777733440 20° C 60% 1012.8 hPa 0 mm - - -
1777732996 19.44° C 61% 1012.7 hPa 0 mm - - -
1777732696 19.44° C 61% 1012.9 hPa 0 mm - - -
1777732396 18.89° C 62% 1013 hPa 0 mm - - -
1777732096 18.33° C 63% 1013 hPa 0 mm - - -
1777731796 17.22° C 65% 1013 hPa 0 mm - - -
1777731497 17.22° C 66% 1013 hPa 0 mm - - -
1777731197 16.67° C 68% 1012.9 hPa 0 mm - - -
1777730896 16.11° C 69% 1012.8 hPa 0 mm - - -
1777730396 15.56° C 71% 1012.7 hPa 0 mm - - -
1777730006 15° C 72% 1012.6 hPa 0 mm - - -
1777729707 15° C 72% 1012.5 hPa 0 mm - - -
1777729406 15.56° C 71% 1012.4 hPa 0 mm - - -
1777729106 15.56° C 71% 1012.4 hPa 0 mm - - -
1777728507 15.56° C 68% 1012.2 hPa 0 mm - - -
1777728206 15.56° C 66% 1012.2 hPa 0 mm - - -
1777727906 15.56° C 67% 1012.2 hPa 0 mm - - -
1777727607 15.56° C 67% 1012.2 hPa 0 mm - - -

* Rain latest hour (hover to see other rain measurements)
** Current wind speed in m/s (hover to see current wind gust speed)